Portada
METAR-TAF:

METAR-TAF

Aeroports :

Ashland, Wisconsin, Estats Units d'Amèrica

latitud: 46-32-59N, longitud: 090-55-06W, altitud: 251 m

Observació

L'informe es va fer fa 12 minuts, a les 12:53 UTC
Vent 5 kt del Oest/Nord-Oest
Temperatura 16°C
Humitat 82%
Pressió 1015 hPa
Visibilitat: 16.1 km
Cel clar

METAR: KASX 201253Z AUTO 29005KT 10SM CLR 16/13 A2997 RMK AO2 SLP152 T01560133

Hora: 08:05 (13:05 UTC)


TAF: manca

Observacions i pronòstics meteorològics de més de 4000 aeroports (METAR i TAF).

Les estacions disponibles són els punts grocs i vermells al mapa.

Posi el ratolí al punt desitjat per veure el nom de l'estació.

Feu clic per veure les observacions i els pronòstics meteorològics.

Per canviar el mapa: feu clic els botons verds amb una creu de color negre per apropar; al botó verd amb un guió per allunyar la imatge; o en les fletxes verdes per a mapes adjacents.


METAR-TAF: